Time;durP1;ratioP1;P1;durP2;ratioP2;P2;SDS_P1;SDS_P2;PMS_P1;PMS_P2;Temp;Humidity;BMP_temperature;BMP_pressure;BME280_temperature;BME280_humidity;BME280_pressure;Samples;Min_cycle;Max_cycle;Signal;HPM_P1;HPM_P2
2022/06/24 00:00:13;;;;;;;;;;;29.00;49.50;;;;;;675531;29;1310;-89
2022/06/24 00:00:39;;;;;;;;;;;29.00;49.50;;;;;;675716;29;1176;-87
2022/06/24 00:01:00;;;;;;;;;;;29.00;49.50;;;;;;678313;29;808;-89
2022/06/24 00:01:20;;;;;;;;;;;29.00;49.70;;;;;;678232;29;844;-89
2022/06/24 00:01:42;;;;;;;;;;;29.00;49.80;;;;;;678064;29;915;-89
2022/06/24 00:02:02;;;;;;;;;;;29.00;49.80;;;;;;675594;29;1341;-88
2022/06/24 00:02:23;;;;;;;;;;;28.90;50.40;;;;;;675493;29;1072;-90
2022/06/24 00:02:47;;;;;;;;;;;28.90;49.70;;;;;;675619;29;824;-89
2022/06/24 00:03:15;;;;;;;;;;;29.00;49.70;;;;;;675625;29;840;-88
2022/06/24 00:03:35;;;;;;;;;;;29.00;50.00;;;;;;672740;29;1147;-88
2022/06/24 00:03:56;;;;;;;;;;;29.00;49.90;;;;;;674712;29;915;-90
2022/06/24 00:04:20;;;;;;;;;;;29.00;51.00;;;;;;675531;29;930;-90
2022/06/24 00:04:49;;;;;;;;;;;29.00;50.20;;;;;;675542;29;880;-89
2022/06/24 00:05:13;;;;;;;;;;;29.00;49.80;;;;;;672954;29;1433;-89
2022/06/24 00:05:34;;;;;;;;;;;29.00;49.60;;;;;;674969;29;1907;-89
2022/06/24 00:05:56;;;;;;;;;;;29.00;49.70;;;;;;675475;29;1198;-89
2022/06/24 00:06:17;;;;;;;;;;;29.00;50.00;;;;;;675468;29;1406;-89
2022/06/24 00:06:46;;;;;;;;;;;29.00;49.90;;;;;;675504;29;1184;-89
2022/06/24 00:07:14;;;;;;;;;;;29.00;49.80;;;;;;675727;29;788;-88
2022/06/24 00:07:47;;;;;;;;;;;29.00;49.60;;;;;;672924;29;1280;-89
2022/06/24 00:08:08;;;;;;;;;;;29.00;49.60;;;;;;673187;29;825;-89
2022/06/24 00:08:28;;;;;;;;;;;29.00;50.20;;;;;;674095;29;1203;-89
2022/06/24 00:08:50;;;;;;;;;;;29.00;49.60;;;;;;675450;29;970;-89
2022/06/24 00:09:12;;;;;;;;;;;29.00;49.80;;;;;;675478;29;796;-90
2022/06/24 00:09:32;;;;;;;;;;;29.00;49.50;;;;;;675120;29;1281;-86
2022/06/24 00:09:53;;;;;;;;;;;29.00;49.50;;;;;;678079;29;1240;-88
2022/06/24 00:10:14;;;;;;;;;;;29.00;49.60;;;;;;675450;29;1140;-90
2022/06/24 00:10:36;;;;;;;;;;;29.00;49.50;;;;;;675608;29;986;-90
2022/06/24 00:10:56;;;;;;;;;;;29.00;49.40;;;;;;678052;29;1377;-88
2022/06/24 00:11:21;;;;;;;;;;;29.00;49.70;;;;;;678127;29;938;-90
2022/06/24 00:11:42;;;;;;;;;;;29.00;49.50;;;;;;677119;29;800;-89
2022/06/24 00:12:04;;;;;;;;;;;29.00;49.40;;;;;;678247;29;1134;-88
2022/06/24 00:12:25;;;;;;;;;;;29.10;49.50;;;;;;678123;29;721;-88
2022/06/24 00:12:46;;;;;;;;;;;29.00;49.40;;;;;;678922;29;1112;-89
2022/06/24 00:13:07;;;;;;;;;;;29.00;49.50;;;;;;680912;29;835;-89
2022/06/24 00:13:37;;;;;;;;;;;29.10;49.30;;;;;;680902;29;938;-89
2022/06/24 00:14:06;;;;;;;;;;;29.00;49.40;;;;;;678829;29;1372;-89
2022/06/24 00:14:26;;;;;;;;;;;29.10;49.20;;;;;;680343;29;1359;-89
2022/06/24 00:14:56;;;;;;;;;;;29.00;49.60;;;;;;680540;29;1292;-90
2022/06/24 00:15:30;;;;;;;;;;;29.10;49.50;;;;;;680777;29;852;-90
2022/06/24 00:15:50;;;;;;;;;;;29.00;49.10;;;;;;678026;29;1289;-89
2022/06/24 00:16:11;;;;;;;;;;;29.10;49.30;;;;;;677686;29;938;-88
2022/06/24 00:16:51;;;;;;;;;;;29.10;49.20;;;;;;678117;29;890;-88
2022/06/24 00:17:12;;;;;;;;;;;29.10;49.40;;;;;;677473;29;1199;-88
2022/06/24 00:17:33;;;;;;;;;;;29.10;49.30;;;;;;678482;29;797;-88
2022/06/24 00:17:54;;;;;;;;;;;29.10;49.10;;;;;;680711;29;1401;-89
2022/06/24 00:18:15;;;;;;;;;;;29.10;49.20;;;;;;680594;29;883;-88
2022/06/24 00:18:36;;;;;;;;;;;29.10;49.00;;;;;;678287;29;911;-89
2022/06/24 00:19:12;;;;;;;;;;;29.10;49.10;;;;;;678674;29;847;-89
2022/06/24 00:19:34;;;;;;;;;;;29.10;49.10;;;;;;680836;29;1238;-88
2022/06/24 00:19:56;;;;;;;;;;;29.10;49.40;;;;;;680807;29;804;-87
2022/06/24 00:20:17;;;;;;;;;;;29.10;49.00;;;;;;680768;29;1313;-89
2022/06/24 00:20:41;;;;;;;;;;;29.10;49.00;;;;;;683438;29;1315;-89
2022/06/24 00:21:10;;;;;;;;;;;29.10;48.90;;;;;;683495;28;808;-85
2022/06/24 00:21:30;;;;;;;;;;;29.10;50.50;;;;;;680889;29;1250;-89
2022/06/24 00:21:57;;;;;;;;;;;29.10;49.00;;;;;;680790;29;839;-89
2022/06/24 00:22:18;;;;;;;;;;;29.10;48.90;;;;;;678295;29;872;-89
2022/06/24 00:22:42;;;;;;;;;;;29.10;49.40;;;;;;676048;29;1348;-88
2022/06/24 00:23:08;;;;;;;;;;;29.10;48.90;;;;;;680819;29;800;-88
2022/06/24 00:23:29;;;;;;;;;;;29.10;49.10;;;;;;680804;29;1234;-89
2022/06/24 00:23:49;;;;;;;;;;;29.10;48.90;;;;;;680784;29;876;-89
2022/06/24 00:24:20;;;;;;;;;;;29.10;48.90;;;;;;683330;29;1211;-88
2022/06/24 00:24:41;;;;;;;;;;;29.10;48.80;;;;;;683420;29;820;-89
2022/06/24 00:25:07;;;;;;;;;;;29.10;48.80;;;;;;683513;28;1356;-89
2022/06/24 00:25:28;;;;;;;;;;;29.10;48.80;;;;;;683542;29;1895;-89
2022/06/24 00:25:52;;;;;;;;;;;29.10;48.90;;;;;;683400;29;923;-90
2022/06/24 00:26:13;;;;;;;;;;;29.10;48.70;;;;;;680846;29;895;-88
2022/06/24 00:26:37;;;;;;;;;;;29.10;49.10;;;;;;680958;29;880;-89
2022/06/24 00:26:58;;;;;;;;;;;29.10;48.70;;;;;;682861;29;1358;-87
2022/06/24 00:27:22;;;;;;;;;;;29.10;48.80;;;;;;683403;29;978;-87
2022/06/24 00:27:57;;;;;;;;;;;29.10;48.70;;;;;;683318;29;1258;-90
2022/06/24 00:28:23;;;;;;;;;;;29.10;48.60;;;;;;683365;29;1323;-89
2022/06/24 00:28:44;;;;;;;;;;;29.10;48.80;;;;;;683443;29;854;-87
2022/06/24 00:29:05;;;;;;;;;;;29.10;49.10;;;;;;683509;29;807;-88
2022/06/24 00:29:27;;;;;;;;;;;29.10;48.70;;;;;;683180;29;772;-89
2022/06/24 00:29:47;;;;;;;;;;;29.10;49.00;;;;;;683404;29;1430;-89
2022/06/24 00:30:09;;;;;;;;;;;29.10;48.80;;;;;;684760;28;836;-86
2022/06/24 00:30:35;;;;;;;;;;;29.20;49.40;;;;;;686118;28;1332;-89
2022/06/24 00:30:56;;;;;;;;;;;29.20;48.70;;;;;;683324;29;1310;-88
2022/06/24 00:31:16;;;;;;;;;;;29.20;48.90;;;;;;683521;29;957;-89
2022/06/24 00:31:37;;;;;;;;;;;29.10;49.20;;;;;;682316;29;878;-90
2022/06/24 00:32:07;;;;;;;;;;;28.60;48.50;;;;;;680690;29;1198;-89
2022/06/24 00:32:29;;;;;;;;;;;29.10;48.50;;;;;;680766;29;1142;-89
2022/06/24 00:32:50;;;;;;;;;;;29.10;49.70;;;;;;678088;29;1289;-89
2022/06/24 00:33:11;;;;;;;;;;;29.10;48.60;;;;;;678236;29;883;-90
2022/06/24 00:33:32;;;;;;;;;;;29.10;48.60;;;;;;680866;29;1272;-88
2022/06/24 00:33:53;;;;;;;;;;;29.10;48.50;;;;;;680616;29;1230;-90
2022/06/24 00:34:26;;;;;;;;;;;29.10;49.70;;;;;;681116;29;1339;-88
2022/06/24 00:34:46;;;;;;;;;;;29.10;48.50;;;;;;682760;28;1406;-89
2022/06/24 00:35:14;;;;;;;;;;;29.10;48.50;;;;;;680757;29;1177;-89
2022/06/24 00:35:39;;;;;;;;;;;29.10;48.80;;;;;;678480;29;1286;-89
2022/06/24 00:36:00;;;;;;;;;;;29.10;48.60;;;;;;678332;29;788;-89
2022/06/24 00:36:20;;;;;;;;;;;29.10;48.50;;;;;;678178;29;832;-89
2022/06/24 00:36:41;;;;;;;;;;;29.10;48.50;;;;;;679873;29;816;-89
2022/06/24 00:37:20;;;;;;;;;;;29.10;48.50;;;;;;679858;29;1187;-89
2022/06/24 00:37:41;;;;;;;;;;;29.10;48.40;;;;;;680641;29;1333;-88
2022/06/24 00:38:19;;;;;;;;;;;29.10;48.90;;;;;;680735;29;1224;-85
2022/06/24 00:38:39;;;;;;;;;;;30.70;49.90;;;;;;683511;29;1290;-88
2022/06/24 00:39:00;;;;;;;;;;;29.10;48.40;;;;;;683401;29;1393;-88
2022/06/24 00:39:30;;;;;;;;;;;29.10;48.50;;;;;;683347;28;1440;-89
2022/06/24 00:39:55;;;;;;;;;;;29.10;48.60;;;;;;683362;29;847;-89
2022/06/24 00:40:16;;;;;;;;;;;29.10;48.50;;;;;;680761;28;1189;-90
2022/06/24 00:40:36;;;;;;;;;;;29.10;49.10;;;;;;678776;28;1424;-89
2022/06/24 00:41:01;;;;;;;;;;;29.10;48.60;;;;;;680170;29;1441;-89
2022/06/24 00:41:23;;;;;;;;;;;29.10;48.50;;;;;;680813;29;1354;-89
2022/06/24 00:41:49;;;;;;;;;;;29.10;48.60;;;;;;680791;29;863;-88
2022/06/24 00:42:09;;;;;;;;;;;29.10;48.60;;;;;;682420;29;801;-89
2022/06/24 00:42:31;;;;;;;;;;;29.00;48.60;;;;;;686159;28;1353;-88
2022/06/24 00:42:51;;;;;;;;;;;29.10;48.60;;;;;;686103;28;816;-88
2022/06/24 00:43:20;;;;;;;;;;;29.00;48.60;;;;;;686057;28;796;-89
2022/06/24 00:43:42;;;;;;;;;;;29.10;48.80;;;;;;686116;28;926;-87
2022/06/24 00:44:03;;;;;;;;;;;29.00;48.80;;;;;;686069;28;1189;-88
2022/06/24 00:44:27;;;;;;;;;;;29.00;48.60;;;;;;684299;28;765;-88
2022/06/24 00:45:00;;;;;;;;;;;29.00;48.80;;;;;;683421;29;808;-88
2022/06/24 00:45:31;;;;;;;;;;;29.00;48.70;;;;;;683335;29;1914;-89
2022/06/24 00:45:55;;;;;;;;;;;29.00;48.80;;;;;;682424;29;843;-88
2022/06/24 00:46:17;;;;;;;;;;;29.00;49.00;;;;;;680974;29;854;-89
2022/06/24 00:46:39;;;;;;;;;;;29.00;48.90;;;;;;680902;28;1813;-89
2022/06/24 00:47:01;;;;;;;;;;;29.00;48.90;;;;;;681042;29;780;-89
2022/06/24 00:47:22;;;;;;;;;;;29.00;48.70;;;;;;685914;28;1280;-88
2022/06/24 00:47:44;;;;;;;;;;;29.00;48.90;;;;;;683365;28;1138;-88
2022/06/24 00:48:08;;;;;;;;;;;29.00;48.70;;;;;;683561;29;1021;-88
2022/06/24 00:48:30;;;;;;;;;;;29.00;48.70;;;;;;683583;29;862;-89
2022/06/24 00:48:51;;;;;;;;;;;28.90;48.80;;;;;;683915;28;1292;-89
2022/06/24 00:49:13;;;;;;;;;;;29.00;48.60;;;;;;681918;28;1514;-88
2022/06/24 00:49:33;;;;;;;;;;;29.00;48.60;;;;;;682806;29;1281;-86
2022/06/24 00:49:57;;;;;;;;;;;30.10;50.00;;;;;;683777;29;1186;-89
2022/06/24 00:50:19;;;;;;;;;;;29.00;48.80;;;;;;681025;29;1135;-90
2022/06/24 00:50:44;;;;;;;;;;;29.00;48.70;;;;;;683090;29;1183;-89
2022/06/24 00:51:07;;;;;;;;;;;29.30;49.20;;;;;;685095;29;894;-87
2022/06/24 00:51:32;;;;;;;;;;;29.00;48.90;;;;;;683439;29;1251;-88
2022/06/24 00:51:53;;;;;;;;;;;28.90;48.60;;;;;;683423;29;835;-87
2022/06/24 00:52:14;;;;;;;;;;;29.00;48.90;;;;;;685210;29;1483;-87
2022/06/24 00:52:38;;;;;;;;;;;29.00;49.10;;;;;;681896;29;1214;-89
2022/06/24 00:52:59;;;;;;;;;;;29.00;48.70;;;;;;681563;29;1026;-85
2022/06/24 00:53:20;;;;;;;;;;;29.00;48.70;;;;;;682909;29;1002;-87
2022/06/24 00:53:42;;;;;;;;;;;29.00;48.90;;;;;;684170;29;848;-88
2022/06/24 00:54:12;;;;;;;;;;;29.00;48.80;;;;;;684095;29;1225;-88
2022/06/24 00:54:33;;;;;;;;;;;29.00;48.90;;;;;;686562;28;1337;-85
2022/06/24 00:54:54;;;;;;;;;;;29.00;48.70;;;;;;686808;29;1088;-88
2022/06/24 00:55:23;;;;;;;;;;;28.90;49.30;;;;;;686593;28;1224;-87
2022/06/24 00:55:45;;;;;;;;;;;29.00;48.80;;;;;;686119;28;1471;-89
2022/06/24 00:56:06;;;;;;;;;;;28.90;48.80;;;;;;684199;28;1299;-89
2022/06/24 00:56:27;;;;;;;;;;;28.90;48.80;;;;;;683355;29;816;-89
2022/06/24 00:56:52;;;;;;;;;;;29.00;48.80;;;;;;680743;29;1322;-89
2022/06/24 00:57:13;;;;;;;;;;;29.00;48.90;;;;;;683478;28;1285;-89
2022/06/24 00:57:35;;;;;;;;;;;28.90;48.70;;;;;;683885;29;753;-87
2022/06/24 00:57:56;;;;;;;;;;;28.90;48.80;;;;;;683567;28;1090;-89
2022/06/24 00:58:17;;;;;;;;;;;28.90;48.70;;;;;;683344;29;875;-88
2022/06/24 00:58:37;;;;;;;;;;;28.90;48.90;;;;;;684291;28;725;-89
2022/06/24 00:58:59;;;;;;;;;;;28.90;48.80;;;;;;685620;28;877;-89
2022/06/24 00:59:20;;;;;;;;;;;28.90;48.90;;;;;;683286;29;1156;-88
2022/06/24 00:59:42;;;;;;;;;;;28.90;48.80;;;;;;683341;29;862;-89
2022/06/24 01:00:03;;;;;;;;;;;28.90;48.80;;;;;;683455;29;1202;-89
2022/06/24 01:00:26;;;;;;;;;;;28.90;48.70;;;;;;683297;29;965;-89
2022/06/24 01:00:47;;;;;;;;;;;28.90;48.80;;;;;;683205;29;1740;-88
2022/06/24 01:01:08;;;;;;;;;;;28.90;48.80;;;;;;682477;29;897;-89
2022/06/24 01:01:30;;;;;;;;;;;28.90;48.80;;;;;;680863;29;832;-89
2022/06/24 01:01:51;;;;;;;;;;;28.90;48.80;;;;;;682919;29;1318;-89
2022/06/24 01:02:14;;;;;;;;;;;28.90;48.70;;;;;;683298;29;959;-89
2022/06/24 01:02:35;;;;;;;;;;;29.90;49.40;;;;;;685942;28;1182;-88
2022/06/24 01:02:57;;;;;;;;;;;28.90;49.80;;;;;;685969;28;887;-88
2022/06/24 01:03:17;;;;;;;;;;;28.90;48.80;;;;;;685892;28;1194;-88
2022/06/24 01:03:42;;;;;;;;;;;28.90;49.10;;;;;;684885;28;1185;-84
2022/06/24 01:04:03;;;;;;;;;;;28.90;48.70;;;;;;683406;29;1314;-88
2022/06/24 01:04:30;;;;;;;;;;;28.90;48.80;;;;;;679577;29;1440;-88
2022/06/24 01:04:50;;;;;;;;;;;28.90;48.80;;;;;;678141;29;997;-89
2022/06/24 01:05:11;;;;;;;;;;;28.90;48.90;;;;;;679672;29;867;-89
2022/06/24 01:05:32;;;;;;;;;;;28.80;48.60;;;;;;678216;29;1903;-89
2022/06/24 01:05:53;;;;;;;;;;;28.90;48.70;;;;;;678115;29;922;-87
2022/06/24 01:06:14;;;;;;;;;;;28.90;48.80;;;;;;681517;29;1301;-89
2022/06/24 01:06:35;;;;;;;;;;;28.90;48.80;;;;;;683519;29;905;-90
2022/06/24 01:06:56;;;;;;;;;;;28.90;48.90;;;;;;683323;29;850;-87
2022/06/24 01:07:17;;;;;;;;;;;28.90;49.20;;;;;;683781;28;802;-89
2022/06/24 01:07:38;;;;;;;;;;;28.90;49.20;;;;;;685984;28;1498;-89
2022/06/24 01:08:05;;;;;;;;;;;28.80;48.80;;;;;;685597;28;830;-89
2022/06/24 01:08:25;;;;;;;;;;;28.90;48.90;;;;;;683316;29;783;-87
2022/06/24 01:08:46;;;;;;;;;;;28.90;49.00;;;;;;683331;29;869;-88
2022/06/24 01:09:10;;;;;;;;;;;28.90;49.00;;;;;;680638;29;1239;-89
2022/06/24 01:09:30;;;;;;;;;;;28.90;49.00;;;;;;680876;29;871;-88
2022/06/24 01:09:51;;;;;;;;;;;28.90;49.10;;;;;;680841;29;1245;-88
2022/06/24 01:10:12;;;;;;;;;;;28.90;48.80;;;;;;680689;29;914;-89
2022/06/24 01:10:33;;;;;;;;;;;28.90;48.80;;;;;;683296;29;1253;-89
2022/06/24 01:10:54;;;;;;;;;;;28.90;49.00;;;;;;684068;28;1318;-88
2022/06/24 01:11:22;;;;;;;;;;;28.80;49.00;;;;;;685322;28;1358;-90
2022/06/24 01:11:43;;;;;;;;;;;28.90;48.90;;;;;;685943;28;803;-88
2022/06/24 01:12:04;;;;;;;;;;;28.90;48.80;;;;;;686106;28;874;-88
2022/06/24 01:12:24;;;;;;;;;;;28.90;49.00;;;;;;684483;28;1287;-89
2022/06/24 01:12:45;;;;;;;;;;;28.90;48.90;;;;;;685879;28;1195;-89
2022/06/24 01:13:09;;;;;;;;;;;28.90;49.00;;;;;;682040;29;1322;-85
2022/06/24 01:13:30;;;;;;;;;;;28.90;49.10;;;;;;680779;29;875;-89
2022/06/24 01:13:51;;;;;;;;;;;28.90;49.40;;;;;;681483;29;880;-88
2022/06/24 01:14:12;;;;;;;;;;;28.30;48.50;;;;;;683362;29;910;-88
2022/06/24 01:14:33;;;;;;;;;;;28.80;49.00;;;;;;682631;29;756;-89
2022/06/24 01:14:53;;;;;;;;;;;28.80;48.90;;;;;;681481;29;1295;-89
2022/06/24 01:15:14;;;;;;;;;;;28.90;48.90;;;;;;683302;29;899;-89
2022/06/24 01:15:36;;;;;;;;;;;28.80;49.20;;;;;;683351;29;783;-89
2022/06/24 01:15:57;;;;;;;;;;;28.80;49.40;;;;;;683275;29;859;-89
2022/06/24 01:16:24;;;;;;;;;;;28.80;49.10;;;;;;683326;29;883;-90
2022/06/24 01:16:44;;;;;;;;;;;28.80;49.20;;;;;;682148;29;811;-89
2022/06/24 01:17:05;;;;;;;;;;;28.80;49.40;;;;;;683494;29;1186;-86
2022/06/24 01:17:26;;;;;;;;;;;28.80;49.70;;;;;;680690;29;1305;-88
2022/06/24 01:17:46;;;;;;;;;;;28.80;49.40;;;;;;680614;29;768;-89
2022/06/24 01:18:07;;;;;;;;;;;28.80;49.30;;;;;;680762;29;824;-88
2022/06/24 01:18:27;;;;;;;;;;;28.80;49.70;;;;;;680632;29;823;-89
2022/06/24 01:18:52;;;;;;;;;;;28.80;49.40;;;;;;680772;29;784;-90
2022/06/24 01:19:13;;;;;;;;;;;28.80;49.20;;;;;;681389;29;1111;-87
2022/06/24 01:19:34;;;;;;;;;;;28.90;49.30;;;;;;685975;28;1331;-88
2022/06/24 01:19:55;;;;;;;;;;;28.90;49.20;;;;;;683204;28;1268;-89
2022/06/24 01:20:15;;;;;;;;;;;28.90;49.80;;;;;;683582;28;1260;-89
2022/06/24 01:20:36;;;;;;;;;;;28.80;49.10;;;;;;683369;29;847;-88
2022/06/24 01:20:56;;;;;;;;;;;28.90;49.00;;;;;;682895;29;859;-88
2022/06/24 01:21:35;;;;;;;;;;;28.90;49.10;;;;;;680608;29;831;-89
2022/06/24 01:21:56;;;;;;;;;;;28.90;49.00;;;;;;683118;29;1324;-90
2022/06/24 01:22:35;;;;;;;;;;;28.90;49.60;;;;;;685852;28;1206;-88
2022/06/24 01:22:55;;;;;;;;;;;28.90;49.00;;;;;;685863;28;815;-88
2022/06/24 01:23:23;;;;;;;;;;;28.90;48.90;;;;;;685159;28;1496;-89
2022/06/24 01:23:43;;;;;;;;;;;28.90;49.10;;;;;;682329;28;1231;-88
2022/06/24 01:24:07;;;;;;;;;;;28.90;48.90;;;;;;680632;29;1313;-88
2022/06/24 01:24:28;;;;;;;;;;;28.90;48.90;;;;;;683243;28;1531;-88
2022/06/24 01:24:49;;;;;;;;;;;28.90;49.30;;;;;;683220;29;839;-88
2022/06/24 01:25:10;;;;;;;;;;;28.90;49.00;;;;;;683342;29;871;-89
2022/06/24 01:25:31;;;;;;;;;;;28.90;49.00;;;;;;684250;28;1903;-88
2022/06/24 01:25:52;;;;;;;;;;;28.90;48.80;;;;;;685920;28;1043;-88
2022/06/24 01:26:13;;;;;;;;;;;28.90;48.70;;;;;;682713;28;1215;-88
2022/06/24 01:26:37;;;;;;;;;;;29.00;48.90;;;;;;680958;29;741;-88
2022/06/24 01:26:58;;;;;;;;;;;28.90;48.80;;;;;;680734;29;835;-89
2022/06/24 01:27:20;;;;;;;;;;;29.00;48.80;;;;;;680649;29;828;-89
2022/06/24 01:27:41;;;;;;;;;;;28.90;48.60;;;;;;680545;29;1508;-88
2022/06/24 01:28:02;;;;;;;;;;;29.00;48.70;;;;;;681827;29;883;-84
2022/06/24 01:28:22;;;;;;;;;;;29.00;48.70;;;;;;680553;29;1204;-88
2022/06/24 01:28:43;;;;;;;;;;;29.00;48.70;;;;;;680692;29;863;-88
2022/06/24 01:29:04;;;;;;;;;;;29.00;48.80;;;;;;680135;29;1543;-88
2022/06/24 01:29:25;;;;;;;;;;;29.00;48.70;;;;;;678026;29;1371;-88
2022/06/24 01:29:45;;;;;;;;;;;29.00;48.80;;;;;;680495;29;1261;-89
2022/06/24 01:30:06;;;;;;;;;;;29.00;48.70;;;;;;681546;29;842;-89
2022/06/24 01:30:27;;;;;;;;;;;29.00;49.80;;;;;;683117;29;1202;-89
2022/06/24 01:30:49;;;;;;;;;;;29.00;48.80;;;;;;683676;28;886;-89
2022/06/24 01:31:09;;;;;;;;;;;29.00;48.50;;;;;;683130;29;1345;-88
2022/06/24 01:31:30;;;;;;;;;;;29.00;48.70;;;;;;682879;29;783;-89
2022/06/24 01:31:53;;;;;;;;;;;29.00;48.50;;;;;;680666;29;800;-89
2022/06/24 01:32:13;;;;;;;;;;;29.00;48.50;;;;;;680571;29;902;-87
2022/06/24 01:32:34;;;;;;;;;;;29.00;48.60;;;;;;680645;29;1210;-88
2022/06/24 01:32:55;;;;;;;;;;;29.00;48.60;;;;;;681199;29;819;-89
2022/06/24 01:33:15;;;;;;;;;;;29.00;49.10;;;;;;683335;29;1330;-88
2022/06/24 01:33:36;;;;;;;;;;;29.00;48.60;;;;;;683294;29;980;-89
2022/06/24 01:33:57;;;;;;;;;;;29.00;48.80;;;;;;683230;29;859;-89
2022/06/24 01:34:18;;;;;;;;;;;29.00;48.70;;;;;;685827;28;1462;-88
2022/06/24 01:34:39;;;;;;;;;;;29.00;49.60;;;;;;683335;28;1294;-89
2022/06/24 01:34:59;;;;;;;;;;;29.00;48.40;;;;;;683253;28;871;-89
2022/06/24 01:35:20;;;;;;;;;;;29.00;48.40;;;;;;683064;28;1425;-88
2022/06/24 01:35:41;;;;;;;;;;;29.10;49.00;;;;;;682913;28;1603;-88
2022/06/24 01:36:01;;;;;;;;;;;29.00;48.90;;;;;;683893;28;1638;-91
2022/06/24 01:36:22;;;;;;;;;;;29.00;48.60;;;;;;681580;28;1585;-81
2022/06/24 01:36:42;;;;;;;;;;;29.00;48.50;;;;;;686434;28;1773;-89
2022/06/24 01:37:03;;;;;;;;;;;28.90;48.40;;;;;;686476;28;886;-89
2022/06/24 01:37:24;;;;;;;;;;;29.00;48.50;;;;;;685917;28;1474;-89
2022/06/24 01:37:44;;;;;;;;;;;29.10;50.50;;;;;;688519;28;1372;-88
2022/06/24 01:38:05;;;;;;;;;;;29.00;49.40;;;;;;688585;28;1315;-88
2022/06/24 01:38:26;;;;;;;;;;;29.00;48.90;;;;;;685825;28;1272;-91
2022/06/24 01:38:46;;;;;;;;;;;29.00;49.90;;;;;;686152;28;1690;-94
2022/06/24 01:39:07;;;;;;;;;;;29.00;48.50;;;;;;686150;28;795;-92
2022/06/24 01:39:29;;;;;;;;;;;29.10;48.60;;;;;;685941;28;906;-93
2022/06/24 01:39:50;;;;;;;;;;;29.00;48.60;;;;;;683413;29;852;-95
2022/06/24 01:40:11;;;;;;;;;;;29.10;48.40;;;;;;681208;29;1274;-93
2022/06/24 01:40:32;;;;;;;;;;;29.10;48.40;;;;;;681878;29;788;-93
2022/06/24 01:40:53;;;;;;;;;;;29.00;49.10;;;;;;685755;28;1634;-92
2022/06/24 01:41:13;;;;;;;;;;;29.00;48.60;;;;;;688842;28;949;-90
2022/06/24 01:41:34;;;;;;;;;;;29.10;48.40;;;;;;688852;28;1586;-86
2022/06/24 01:41:55;;;;;;;;;;;29.00;48.30;;;;;;688996;28;895;-88
2022/06/24 01:42:16;;;;;;;;;;;29.10;48.20;;;;;;688675;28;903;-92
2022/06/24 01:42:37;;;;;;;;;;;29.10;48.40;;;;;;688544;28;831;-86
2022/06/24 01:42:59;;;;;;;;;;;29.10;48.40;;;;;;685465;28;1281;-92
2022/06/24 01:43:20;;;;;;;;;;;29.00;48.10;;;;;;683458;28;879;-87
2022/06/24 01:43:41;;;;;;;;;;;29.00;48.10;;;;;;683484;28;830;-92
2022/06/24 01:44:01;;;;;;;;;;;29.00;48.20;;;;;;683727;28;998;-92
2022/06/24 01:44:22;;;;;;;;;;;29.10;48.40;;;;;;683458;28;827;-84
2022/06/24 01:44:43;;;;;;;;;;;29.10;48.60;;;;;;683452;28;918;-91
2022/06/24 01:45:04;;;;;;;;;;;29.10;48.70;;;;;;683621;28;883;-91
2022/06/24 01:45:24;;;;;;;;;;;29.00;48.80;;;;;;683474;28;1969;-89
2022/06/24 01:45:45;;;;;;;;;;;29.10;48.40;;;;;;683450;28;831;-89
2022/06/24 01:46:06;;;;;;;;;;;29.00;48.90;;;;;;686017;28;1201;-90
2022/06/24 01:46:27;;;;;;;;;;;29.00;49.50;;;;;;685204;28;1350;-85
2022/06/24 01:46:55;;;;;;;;;;;29.10;48.10;;;;;;685231;28;1424;-89
2022/06/24 01:47:16;;;;;;;;;;;29.10;48.10;;;;;;683228;29;937;-87
2022/06/24 01:47:36;;;;;;;;;;;29.10;48.10;;;;;;683426;29;875;-91
2022/06/24 01:47:57;;;;;;;;;;;29.00;48.40;;;;;;683423;29;827;-92
2022/06/24 01:48:17;;;;;;;;;;;29.00;48.40;;;;;;683340;29;816;-91
2022/06/24 01:48:38;;;;;;;;;;;29.10;48.30;;;;;;680588;29;1291;-82
2022/06/24 01:49:00;;;;;;;;;;;29.10;48.20;;;;;;680790;29;856;-92
2022/06/24 01:49:21;;;;;;;;;;;29.10;48.10;;;;;;680622;29;919;-92
2022/06/24 01:49:41;;;;;;;;;;;29.10;48.10;;;;;;680652;29;804;-88
2022/06/24 01:50:02;;;;;;;;;;;29.00;48.30;;;;;;680672;29;1196;-87
2022/06/24 01:50:23;;;;;;;;;;;29.10;48.00;;;;;;681184;29;1372;-92
2022/06/24 01:50:43;;;;;;;;;;;29.00;48.50;;;;;;683402;29;830;-92
2022/06/24 01:51:05;;;;;;;;;;;29.00;47.90;;;;;;683435;28;1318;-93
2022/06/24 01:51:27;;;;;;;;;;;29.00;47.90;;;;;;683191;29;819;-92
2022/06/24 01:51:48;;;;;;;;;;;29.00;47.80;;;;;;683296;29;788;-89
2022/06/24 01:52:08;;;;;;;;;;;29.00;48.00;;;;;;683349;29;1261;-91
2022/06/24 01:52:29;;;;;;;;;;;29.00;47.90;;;;;;683426;29;839;-93
2022/06/24 01:52:50;;;;;;;;;;;29.00;48.20;;;;;;683403;28;1332;-91
2022/06/24 01:53:10;;;;;;;;;;;29.00;48.60;;;;;;683301;29;839;-93
2022/06/24 01:53:31;;;;;;;;;;;29.00;48.00;;;;;;683349;29;1068;-89
2022/06/24 01:53:51;;;;;;;;;;;29.00;48.40;;;;;;682678;29;1307;-89
2022/06/24 01:54:12;;;;;;;;;;;29.00;48.60;;;;;;683251;29;891;-86
2022/06/24 01:54:32;;;;;;;;;;;29.00;48.10;;;;;;683151;29;875;-91
2022/06/24 01:54:53;;;;;;;;;;;29.00;48.10;;;;;;680748;29;922;-86
2022/06/24 01:55:14;;;;;;;;;;;29.00;48.30;;;;;;680605;29;792;-92
2022/06/24 01:55:34;;;;;;;;;;;29.00;48.30;;;;;;680906;29;764;-93
2022/06/24 01:55:55;;;;;;;;;;;29.00;48.10;;;;;;683587;29;863;-94
2022/06/24 01:56:15;;;;;;;;;;;29.00;48.10;;;;;;683538;29;930;-92
2022/06/24 01:56:36;;;;;;;;;;;29.00;48.00;;;;;;683584;29;910;-93
2022/06/24 01:56:57;;;;;;;;;;;28.90;48.00;;;;;;683493;28;1388;-94
2022/06/24 01:57:17;;;;;;;;;;;29.00;48.90;;;;;;683598;29;874;-93
2022/06/24 01:57:38;;;;;;;;;;;29.00;48.00;;;;;;683410;28;1350;-94
2022/06/24 01:57:58;;;;;;;;;;;28.90;48.00;;;;;;683601;29;887;-95
2022/06/24 01:58:19;;;;;;;;;;;28.90;48.10;;;;;;683518;28;1350;-91
2022/06/24 01:58:39;;;;;;;;;;;28.90;48.20;;;;;;683574;29;781;-93
2022/06/24 01:59:00;;;;;;;;;;;28.90;48.00;;;;;;683552;29;1368;-92
2022/06/24 01:59:20;;;;;;;;;;;28.90;48.90;;;;;;683426;28;1441;-93
2022/06/24 01:59:41;;;;;;;;;;;28.90;48.30;;;;;;685847;28;1205;-88
2022/06/24 02:00:02;;;;;;;;;;;28.90;48.10;;;;;;688496;28;1217;-90
2022/06/24 02:00:23;;;;;;;;;;;28.90;48.50;;;;;;688578;28;1072;-90
2022/06/24 02:00:43;;;;;;;;;;;28.90;48.40;;;;;;688660;28;800;-84
2022/06/24 02:01:04;;;;;;;;;;;28.80;48.50;;;;;;688813;28;890;-94
2022/06/24 02:01:24;;;;;;;;;;;28.90;48.60;;;;;;688615;28;886;-93
2022/06/24 02:01:45;;;;;;;;;;;28.90;48.20;;;;;;687887;28;1358;-87
2022/06/24 02:02:07;;;;;;;;;;;28.90;48.20;;;;;;683614;28;1073;-92
2022/06/24 02:02:28;;;;;;;;;;;28.90;48.20;;;;;;685381;28;923;-93
2022/06/24 02:02:48;;;;;;;;;;;28.90;48.40;;;;;;685980;28;787;-94
2022/06/24 02:03:09;;;;;;;;;;;28.90;48.60;;;;;;685960;28;902;-92
2022/06/24 02:03:31;;;;;;;;;;;28.90;48.50;;;;;;686072;28;887;-92
2022/06/24 02:03:52;;;;;;;;;;;28.90;48.40;;;;;;685920;28;1090;-94
2022/06/24 02:04:13;;;;;;;;;;;27.10;47.10;;;;;;685491;28;847;-91
2022/06/24 02:04:33;;;;;;;;;;;28.90;48.30;;;;;;683536;28;942;-95
2022/06/24 02:04:54;;;;;;;;;;;28.90;48.60;;;;;;683537;28;867;-88
2022/06/24 02:05:15;;;;;;;;;;;28.90;48.40;;;;;;683685;28;772;-89
2022/06/24 02:05:35;;;;;;;;;;;28.90;48.20;;;;;;683435;28;1899;-93
2022/06/24 02:06:00;;;;;;;;;;;28.90;48.30;;;;;;685759;28;1291;-94
2022/06/24 02:06:20;;;;;;;;;;;28.80;48.20;;;;;;683248;29;906;-90
2022/06/24 02:06:41;;;;;;;;;;;28.80;48.10;;;;;;683163;29;1319;-94
2022/06/24 02:07:01;;;;;;;;;;;28.90;48.60;;;;;;683347;29;863;-93
2022/06/24 02:07:22;;;;;;;;;;;28.90;48.20;;;;;;685871;28;1264;-86
2022/06/24 02:07:44;;;;;;;;;;;28.80;48.40;;;;;;686045;28;907;-91
2022/06/24 02:08:04;;;;;;;;;;;28.80;48.20;;;;;;686491;28;903;-92
2022/06/24 02:08:25;;;;;;;;;;;28.80;48.50;;;;;;688597;28;945;-93
2022/06/24 02:08:46;;;;;;;;;;;28.80;48.40;;;;;;688669;28;787;-92
2022/06/24 02:09:07;;;;;;;;;;;28.80;48.30;;;;;;687823;28;824;-93
2022/06/24 02:09:27;;;;;;;;;;;28.80;48.20;;;;;;683459;28;835;-91
2022/06/24 02:13:58;;;;;;;;;;;28.80;48.40;;;;;;683198;29;1339;-89
2022/06/24 02:14:19;;;;;;;;;;;28.80;48.50;;;;;;682901;29;1282;-88
2022/06/24 02:14:40;;;;;;;;;;;28.10;48.20;;;;;;682954;29;1342;-88
2022/06/24 02:15:00;;;;;;;;;;;28.70;48.30;;;;;;683021;29;1337;-88
2022/06/24 02:15:21;;;;;;;;;;;28.80;49.10;;;;;;682980;29;1209;-89
2022/06/24 02:15:41;;;;;;;;;;;28.70;48.80;;;;;;682561;29;1218;-88
2022/06/24 02:16:04;;;;;;;;;;;28.70;49.30;;;;;;683064;29;1217;-87
2022/06/24 02:16:25;;;;;;;;;;;28.80;48.30;;;;;;682517;29;812;-87
2022/06/24 02:16:45;;;;;;;;;;;28.70;48.20;;;;;;680383;29;808;-88
2022/06/24 02:17:06;;;;;;;;;;;28.70;48.50;;;;;;680478;29;1335;-87
2022/06/24 02:17:26;;;;;;;;;;;28.70;50.50;;;;;;680371;29;1180;-88
2022/06/24 02:17:47;;;;;;;;;;;28.70;48.50;;;;;;678204;29;1360;-88
2022/06/24 02:18:09;;;;;;;;;;;28.70;51.30;;;;;;680424;29;1225;-89
2022/06/24 02:18:30;;;;;;;;;;;28.70;49.50;;;;;;680310;29;1367;-87